Terminal Aerodrome Forecast
Issued by NWS

Home | Current Version | Previous Version | Text Only | Print | Product List | Glossary On
Versions: 1 2 3 4 5 6 7 8 9 10 11 12 13 14 15 16 17
000
FTUS45 KBOI 301720
TAFJER
TAF
KJER 301720Z 3018/0118 21010KT P6SM VCSH OVC010
     FM301900 25012KT P6SM VCSH SCT010 BKN060
     FM010300 25008KT P6SM BKN080
     FM010600 08010KT P6SM BKN090=

USA.gov is the U.S. government's official web portal to all federal, state and local government web resources and services.